Time;durP1;ratioP1;P1;durP2;ratioP2;P2;SDS_P1;SDS_P2;PMS_P1;PMS_P2;Temp;Humidity;BMP_temperature;BMP_pressure;BME280_temperature;BME280_humidity;BME280_pressure;Samples;Min_cycle;Max_cycle;Signal;HPM_P1;HPM_P2
2022/01/18 00:00:15;;;;;;;27.52;9.10;;;;;;;2.29;98.93;103760.41;5029173;28;20095;-69
2022/01/18 00:02:41;;;;;;;27.30;8.73;;;;;;;2.29;99.37;103757.78;5029657;28;20018;-68
2022/01/18 00:05:13;;;;;;;21.17;7.78;;;;;;;2.27;99.54;103763.03;5029385;28;20032;-68
2022/01/18 00:07:39;;;;;;;27.42;8.43;;;;;;;2.28;99.60;103759.56;5013476;28;20487;-68
2022/01/18 00:10:05;;;;;;;24.00;8.43;;;;;;;2.28;99.81;103769.13;5009852;28;20042;-68
2022/01/18 00:17:53;;;;;;;32.10;9.27;;;;;;;2.30;100.00;103760.44;5009808;28;20046;-68
2022/01/18 00:20:28;;;;;;;29.15;9.18;;;;;;;2.33;100.00;103767.41;5009801;28;20112;-68
2022/01/18 00:22:53;;;;;;;23.75;9.07;;;;;;;2.31;100.00;103770.03;5009608;28;20033;-67
2022/01/18 00:25:19;;;;;;;26.35;9.50;;;;;;;2.32;100.00;103769.16;5009615;28;20022;-67
2022/01/18 00:27:44;;;;;;;29.38;9.60;;;;;;;2.31;100.00;103758.66;5009568;28;20109;-67
2022/01/18 00:30:34;;;;;;;25.40;8.75;;;;;;;2.31;100.00;103769.16;5009379;28;20026;-67
2022/01/18 00:35:20;;;;;;;30.27;9.63;;;;;;;2.35;100.00;103773.56;5026895;28;20072;-68
2022/01/18 00:37:55;;;;;;;27.40;9.90;;;;;;;2.38;100.00;103782.31;5024213;28;20037;-67
2022/01/18 00:40:20;;;;;;;23.80;8.98;;;;;;;2.38;100.00;103779.72;5028928;28;20529;-67
2022/01/18 00:42:46;;;;;;;30.05;10.75;;;;;;;2.39;100.00;103780.56;5017180;28;20033;-68
2022/01/18 00:45:11;;;;;;;36.47;10.85;;;;;;;2.42;100.00;103782.34;5029128;28;20037;-68
2022/01/18 00:47:36;;;;;;;38.03;10.60;;;;;;;2.45;100.00;103785.84;5022600;28;20026;-67
2022/01/18 00:50:03;;;;;;;27.80;9.90;;;;;;;2.47;100.00;103791.13;5026278;28;20068;-67
2022/01/18 00:52:34;;;;;;;27.67;10.32;;;;;;;2.48;100.00;103800.72;5031505;28;20092;-67
2022/01/18 00:55:01;;;;;;;29.95;10.23;;;;;;;2.50;100.00;103798.97;5019630;28;20038;-68
2022/01/18 00:57:27;;;;;;;37.08;11.43;;;;;;;2.54;100.00;103806.00;5033045;28;20017;-67
2022/01/18 00:59:52;;;;;;;31.67;11.38;;;;;;;2.55;100.00;103803.41;5032887;28;20456;-67
2022/01/18 01:02:17;;;;;;;41.95;12.32;;;;;;;2.59;100.00;103806.91;5028750;28;20538;-68
2022/01/18 01:04:48;;;;;;;30.98;11.65;;;;;;;2.63;100.00;103807.78;5023983;28;20072;-68
2022/01/18 01:07:15;;;;;;;32.63;11.27;;;;;;;2.65;100.00;103799.06;5032467;28;20472;-68
2022/01/18 01:09:40;;;;;;;37.22;11.35;;;;;;;2.67;100.00;103799.06;5032747;28;20151;-67
2022/01/18 01:12:06;;;;;;;30.27;10.68;;;;;;;2.70;100.00;103801.72;5019383;28;20487;-68
2022/01/18 01:14:33;;;;;;;34.78;11.60;;;;;;;2.70;100.00;103797.34;5032780;28;20033;-68
2022/01/18 01:17:07;;;;;;;32.92;10.75;;;;;;;2.72;100.00;103800.84;5023674;28;20037;-68
2022/01/18 01:33:38;;;;;;;33.63;10.77;;;;;;;2.88;100.00;103787.75;5032311;28;20048;-67
2022/01/18 01:41:50;;;;;;;28.80;10.98;;;;;;;2.94;100.00;103795.66;5028329;28;20412;-67
2022/01/18 01:44:27;;;;;;;39.22;10.68;;;;;;;2.96;100.00;103793.91;5020313;28;20111;-67
2022/01/18 01:46:52;;;;;;;38.17;12.38;;;;;;;2.98;100.00;103786.91;5030864;28;20025;-67
2022/01/18 01:49:19;;;;;;;44.17;13.75;;;;;;;3.02;100.00;103793.06;5031964;28;20472;-67
2022/01/18 01:51:47;;;;;;;41.80;13.30;;;;;;;3.04;100.00;103784.31;5022269;28;20432;-67
2022/01/18 01:54:13;;;;;;;44.55;13.23;;;;;;;3.08;100.00;103791.34;5030261;28;20132;-68
2022/01/18 01:56:39;;;;;;;40.63;14.20;;;;;;;3.09;100.00;103786.94;5027447;28;20491;-67
2022/01/18 01:59:05;;;;;;;43.70;14.10;;;;;;;3.11;100.00;103787.81;5043249;28;20030;-67
2022/01/18 02:01:39;;;;;;;38.70;13.27;;;;;;;3.13;100.00;103791.31;5032086;28;20029;-67
2022/01/18 02:04:04;;;;;;;54.22;14.52;;;;;;;3.14;100.00;103788.69;5028091;28;20034;-67
2022/01/18 02:06:29;;;;;;;40.05;13.45;;;;;;;3.16;100.00;103786.06;5031395;28;20097;-67
2022/01/18 02:08:54;;;;;;;39.88;14.13;;;;;;;3.17;100.00;103789.59;5031635;28;20033;-67
2022/01/18 02:11:20;;;;;;;41.85;14.07;;;;;;;3.19;100.00;103793.97;5031255;28;20668;-67
2022/01/18 02:13:48;;;;;;;45.35;14.27;;;;;;;3.19;100.00;103787.84;5022691;28;20071;-67
2022/01/18 02:21:45;;;;;;;45.63;14.87;;;;;;;3.23;100.00;103793.13;5031028;28;20029;-67
2022/01/18 02:21:46;;;;;;;38.70;14.60;;;;;;;3.28;100.00;103795.72;5030884;28;20048;-67
2022/01/18 02:24:11;;;;;;;37.28;12.95;;;;;;;3.28;100.00;103796.63;5031086;28;20102;-66
2022/01/18 02:26:37;;;;;;;46.33;13.50;;;;;;;3.32;100.00;103802.75;5027670;28;20057;-67
2022/01/18 02:29:05;;;;;;;34.97;14.25;;;;;;;3.32;100.00;103795.75;5020973;28;20021;-67
2022/01/18 02:31:30;;;;;;;34.72;15.13;;;;;;;3.34;100.00;103790.50;5017823;28;20494;-67
2022/01/18 02:34:01;;;;;;;36.05;14.35;;;;;;;3.36;100.00;103783.47;5021934;28;20022;-67
2022/01/18 02:36:26;;;;;;;37.53;14.15;;;;;;;3.39;100.00;103787.88;5032024;28;20463;-67
2022/01/18 02:38:52;;;;;;;40.45;14.85;;;;;;;3.42;100.00;103785.25;5029797;28;20071;-67
2022/01/18 02:41:28;;;;;;;41.90;14.90;;;;;;;3.42;100.00;103783.50;5021667;28;20387;-67
2022/01/18 02:43:56;;;;;;;40.10;14.18;;;;;;;3.43;100.00;103779.09;5018695;28;20491;-67
2022/01/18 02:46:22;;;;;;;42.67;14.38;;;;;;;3.45;100.00;103778.25;5031977;28;20021;-67
2022/01/18 02:48:48;;;;;;;38.38;14.63;;;;;;;3.44;100.00;103773.00;5018430;28;20037;-67
2022/01/18 02:51:13;;;;;;;42.33;15.55;;;;;;;3.47;100.00;103779.13;5031754;28;20049;-67
2022/01/18 02:54:00;;;;;;;40.50;15.00;;;;;;;3.48;100.00;103778.25;5031724;28;20534;-67
2022/01/18 02:56:32;;;;;;;40.92;13.60;;;;;;;3.49;100.00;103781.75;5013867;28;20108;-67
2022/01/18 02:59:04;;;;;;;36.13;14.90;;;;;;;3.51;100.00;103780.00;5025964;28;20492;-67
2022/01/18 03:04:24;;;;;;;45.50;17.05;;;;;;;3.54;100.00;103779.13;5011410;28;20113;-67
2022/01/18 03:06:50;;;;;;;43.55;15.20;;;;;;;3.52;100.00;103772.09;5018689;28;20050;-67
2022/01/18 03:09:15;;;;;;;40.20;15.15;;;;;;;3.55;100.00;103783.50;5021859;28;20040;-67
2022/01/18 03:11:41;;;;;;;43.42;16.38;;;;;;;3.54;100.00;103771.25;5031497;28;20061;-67
2022/01/18 03:14:06;;;;;;;42.92;15.57;;;;;;;3.54;100.00;103780.00;5031304;28;20036;-67
2022/01/18 03:16:31;;;;;;;40.60;17.70;;;;;;;3.56;100.00;103786.13;5019216;28;20036;-67
2022/01/18 03:18:57;;;;;;;38.95;16.02;;;;;;;3.56;100.00;103785.25;5031317;28;20477;-67
2022/01/18 03:21:22;;;;;;;39.53;16.42;;;;;;;3.57;100.00;103792.28;5030973;28;20032;-67
2022/01/18 03:23:52;;;;;;;39.30;15.98;;;;;;;3.56;100.00;103790.50;5031231;28;20388;-67
2022/01/18 03:26:19;;;;;;;35.72;16.40;;;;;;;3.56;100.00;103795.75;5030743;28;20041;-67
2022/01/18 03:28:45;;;;;;;36.35;15.65;;;;;;;3.59;100.00;103793.16;5031309;28;20040;-67
2022/01/18 03:31:11;;;;;;;32.28;14.82;;;;;;;3.59;100.00;103795.78;5031135;28;20049;-67
2022/01/18 03:33:36;;;;;;;29.70;15.32;;;;;;;3.61;100.00;103794.00;5028874;28;20025;-67
2022/01/18 03:36:05;;;;;;;34.83;15.13;;;;;;;3.61;100.00;103801.91;5031079;28;20037;-67
2022/01/18 03:38:30;;;;;;;45.30;15.98;;;;;;;3.61;100.00;103797.50;5031079;28;20018;-68
2022/01/18 03:41:01;;;;;;;35.28;16.08;;;;;;;3.61;100.00;103796.63;5028828;28;20028;-68
2022/01/18 03:43:28;;;;;;;32.13;16.25;;;;;;;3.61;100.00;103791.38;5029864;28;20032;-68
2022/01/18 03:46:00;;;;;;;41.55;15.95;;;;;;;3.61;100.00;103788.75;5031395;28;20040;-68
2022/01/18 03:48:37;;;;;;;36.72;16.13;;;;;;;3.61;100.00;103784.38;5031076;28;20060;-68
2022/01/18 03:51:04;;;;;;;30.38;16.08;;;;;;;3.62;100.00;103786.13;5011636;28;20053;-68
2022/01/18 03:53:30;;;;;;;37.10;17.45;;;;;;;3.63;100.00;103798.41;5011222;28;20022;-68
2022/01/18 03:55:56;;;;;;;31.77;14.77;;;;;;;3.63;100.00;103798.41;5011287;28;20026;-68
2022/01/18 03:58:22;;;;;;;33.40;16.50;;;;;;;3.62;100.00;103801.91;5010845;28;20050;-68
2022/01/18 04:00:48;;;;;;;29.13;15.90;;;;;;;3.63;100.00;103811.56;5011016;28;20021;-68
2022/01/18 04:03:13;;;;;;;32.90;16.50;;;;;;;3.65;100.00;103812.41;5010951;28;20021;-68
2022/01/18 04:05:39;;;;;;;29.25;17.00;;;;;;;3.63;100.00;103808.03;5010969;28;20026;-68
2022/01/18 04:08:04;;;;;;;38.13;16.02;;;;;;;3.63;100.00;103803.66;5010703;28;20034;-68
2022/01/18 04:10:30;;;;;;;35.92;16.83;;;;;;;3.63;100.00;103808.91;5011011;28;20033;-68
2022/01/18 04:12:56;;;;;;;31.50;15.93;;;;;;;3.64;100.00;103813.28;5010831;28;20030;-68
2022/01/18 04:15:22;;;;;;;32.55;16.63;;;;;;;3.65;100.00;103809.78;5010753;28;20026;-69
2022/01/18 04:26:55;;;;;;;32.10;16.65;;;;;;;3.67;100.00;103815.91;5012469;28;20060;-68
2022/01/18 04:28:47;;;;;;;34.05;16.10;;;;;;;3.66;100.00;103824.69;5015230;28;20037;-68
2022/01/18 04:31:13;;;;;;;31.33;16.33;;;;;;;3.67;100.00;103834.31;5015552;28;20475;-68
2022/01/18 04:33:38;;;;;;;35.95;17.45;;;;;;;3.68;100.00;103824.66;5015384;28;20403;-68
2022/01/18 04:36:05;;;;;;;33.55;16.98;;;;;;;3.68;100.00;103816.78;5015434;28;20030;-68
2022/01/18 04:38:31;;;;;;;33.75;16.98;;;;;;;3.69;100.00;103816.78;5015648;28;20033;-68
2022/01/18 04:41:04;;;;;;;36.70;16.95;;;;;;;3.69;100.00;103811.53;5015282;28;20034;-68
2022/01/18 04:43:49;;;;;;;37.47;16.83;;;;;;;3.70;100.00;103815.91;5035847;28;20500;-68
2022/01/18 04:49:00;;;;;;;38.80;17.33;;;;;;;3.70;100.00;103825.56;5025286;28;20053;-68
2022/01/18 04:51:26;;;;;;;36.38;17.02;;;;;;;3.69;100.00;103823.81;5036594;28;20049;-67
2022/01/18 04:53:55;;;;;;;42.85;18.30;;;;;;;3.68;100.00;103819.41;5022826;28;20112;-67
2022/01/18 04:58:54;;;;;;;38.00;17.38;;;;;;;3.69;100.00;103821.19;5033604;28;20046;-68
2022/01/18 05:01:20;;;;;;;45.92;17.90;;;;;;;3.68;100.00;103827.31;5036545;28;20029;-67
2022/01/18 05:03:46;;;;;;;42.45;16.85;;;;;;;3.69;100.00;103829.06;5034539;28;20096;-68
2022/01/18 05:06:15;;;;;;;40.30;17.27;;;;;;;3.69;100.00;103829.94;5036575;28;20164;-67
2022/01/18 05:08:40;;;;;;;;;;;;;;;3.78;100.00;103826.44;5035794;28;20021;-67
2022/01/18 05:11:08;;;;;;;41.27;16.90;;;;;;;3.72;100.00;103829.06;5034275;28;19942;-68
2022/01/18 05:13:59;;;;;;;39.78;17.65;;;;;;;3.70;100.00;103831.69;5028159;28;20032;-67
2022/01/18 05:24:02;;;;;;;45.35;17.02;;;;;;;3.71;100.00;103837.81;5026514;28;20034;-67
2022/01/18 05:26:29;;;;;;;44.70;16.33;;;;;;;3.71;100.00;103829.94;5036127;28;20110;-67
2022/01/18 05:28:57;;;;;;;43.30;17.33;;;;;;;3.72;100.00;103836.97;5036522;28;20499;-68
2022/01/18 05:31:23;;;;;;;43.55;17.58;;;;;;;3.73;100.00;103832.56;5030141;28;20079;-68
2022/01/18 05:33:48;;;;;;;43.92;16.63;;;;;;;3.74;100.00;103839.59;5036488;28;20150;-68
2022/01/18 05:36:14;;;;;;;44.05;17.98;;;;;;;3.75;100.00;103833.44;5036424;28;20021;-67
2022/01/18 05:38:40;;;;;;;44.72;17.23;;;;;;;3.74;100.00;103837.81;5023365;28;20376;-68
2022/01/18 05:41:07;;;;;;;41.58;16.42;;;;;;;3.73;100.00;103841.34;5033177;28;20026;-68
2022/01/18 05:43:33;;;;;;;47.70;17.30;;;;;;;3.74;100.00;103837.81;5032196;28;20037;-68
2022/01/18 05:45:59;;;;;;;44.40;16.92;;;;;;;3.74;100.00;103832.56;5024964;28;20030;-68
2022/01/18 05:48:24;;;;;;;45.50;16.80;;;;;;;3.73;100.00;103833.47;5032737;28;20483;-68
2022/01/18 05:50:50;;;;;;;37.83;15.55;;;;;;;3.73;100.00;103824.69;5027228;28;20046;-68
2022/01/18 05:53:15;;;;;;;38.65;16.17;;;;;;;3.73;100.00;103825.56;5026944;28;20067;-68
2022/01/18 05:55:41;;;;;;;45.47;16.00;;;;;;;3.74;100.00;103826.44;5032991;28;20032;-67
2022/01/18 05:58:06;;;;;;;35.05;15.77;;;;;;;3.74;100.00;103832.56;5026652;28;20034;-68
2022/01/18 06:00:33;;;;;;;46.42;16.77;;;;;;;3.75;100.00;103838.69;5030776;28;20032;-67
2022/01/18 06:08:09;;;;;;;43.20;16.17;;;;;;;3.76;100.00;103824.69;5023695;28;20182;-68
2022/01/18 06:10:35;;;;;;;46.05;16.80;;;;;;;3.76;100.00;103833.44;5032711;28;20096;-68
2022/01/18 06:13:02;;;;;;;43.15;16.92;;;;;;;3.76;100.00;103827.31;5026385;28;20103;-68
2022/01/18 06:15:28;;;;;;;42.70;16.50;;;;;;;3.76;100.00;103829.94;5027408;28;20167;-68
2022/01/18 06:17:53;;;;;;;44.42;17.08;;;;;;;3.75;100.00;103829.06;5029941;28;20033;-68
2022/01/18 06:20:19;;;;;;;35.28;17.08;;;;;;;3.77;100.00;103832.56;5023557;28;20482;-67
2022/01/18 06:22:44;;;;;;;45.72;17.63;;;;;;;3.76;100.00;103830.81;5032274;28;20078;-67
2022/01/18 06:25:10;;;;;;;36.03;16.58;;;;;;;3.77;100.00;103832.56;5032483;28;20029;-67
2022/01/18 06:27:35;;;;;;;45.33;17.88;;;;;;;3.77;100.00;103832.56;5026726;28;20376;-67
2022/01/18 06:30:00;;;;;;;51.92;18.98;;;;;;;3.77;100.00;103832.56;5032136;28;20026;-67
2022/01/18 06:32:26;;;;;;;43.92;18.58;;;;;;;3.78;100.00;103828.19;5025902;28;20310;-68
2022/01/18 06:34:51;;;;;;;54.75;19.10;;;;;;;3.80;100.00;103826.44;5030881;28;20120;-67
2022/01/18 06:37:17;;;;;;;53.35;18.10;;;;;;;3.79;100.00;103829.94;5032178;28;20040;-67
2022/01/18 06:39:42;;;;;;;48.50;19.05;;;;;;;3.79;100.00;103829.94;5028415;28;20030;-67
2022/01/18 06:42:10;;;;;;;54.35;18.92;;;;;;;3.80;100.00;103834.34;5032228;28;20036;-67
2022/01/18 06:44:36;;;;;;;58.05;21.33;;;;;;;3.79;100.00;103827.31;5031980;28;20031;-68
2022/01/18 06:47:01;;;;;;;50.08;19.92;;;;;;;3.79;100.00;103828.19;5031969;28;20030;-67
2022/01/18 06:49:26;;;;;;;52.38;20.25;;;;;;;3.78;100.00;103831.72;5023857;28;20041;-67
2022/01/18 06:51:52;;;;;;;64.95;20.15;;;;;;;3.79;100.00;103833.44;5029995;28;20050;-67
2022/01/18 06:54:18;;;;;;;45.85;19.33;;;;;;;3.78;100.00;103836.97;5026008;28;20044;-67
2022/01/18 06:56:47;;;;;;;52.92;20.70;;;;;;;3.77;100.00;103837.84;5031833;28;20032;-66
2022/01/18 06:59:13;;;;;;;;;;;;;;;3.85;100.00;103845.72;5032200;28;20103;-66
2022/01/18 07:01:38;;;;;;;49.65;19.88;;;;;;;3.81;100.00;103849.22;5031215;28;20441;-67
2022/01/18 07:04:04;;;;;;;48.75;18.85;;;;;;;3.80;100.00;103837.84;5030471;28;20076;-66
2022/01/18 07:06:29;;;;;;;49.08;19.88;;;;;;;3.81;100.00;103843.97;5031655;28;20317;-67
2022/01/18 07:08:54;;;;;;;50.40;19.35;;;;;;;3.81;100.00;103850.09;5029954;28;20029;-67
2022/01/18 07:11:20;;;;;;;46.45;17.67;;;;;;;3.81;100.00;103852.72;5032202;28;20083;-68
2022/01/18 07:13:45;;;;;;;49.33;19.08;;;;;;;3.82;100.00;103849.22;5028247;28;20048;-67
2022/01/18 07:16:11;;;;;;;45.38;20.38;;;;;;;3.81;100.00;103849.22;5031431;28;20025;-67
2022/01/18 07:18:36;;;;;;;52.70;20.48;;;;;;;3.81;100.00;103847.47;5030869;28;20113;-68
2022/01/18 07:21:02;;;;;;;55.42;20.33;;;;;;;3.80;100.00;103853.63;5030722;28;20428;-67
2022/01/18 07:23:27;;;;;;;48.13;20.00;;;;;;;3.81;100.00;103851.84;5032300;28;20030;-67
2022/01/18 07:25:53;;;;;;;51.38;19.50;;;;;;;3.80;100.00;103852.75;5020529;28;20488;-68
2022/01/18 07:28:19;;;;;;;48.20;20.27;;;;;;;3.79;100.00;103857.09;5017721;28;20397;-68
2022/01/18 07:30:46;;;;;;;41.53;20.52;;;;;;;3.78;100.00;103860.63;5017111;28;20047;-68
2022/01/18 07:33:12;;;;;;;45.55;19.95;;;;;;;3.77;100.00;103861.50;5013858;28;20033;-68
2022/01/18 07:35:39;;;;;;;46.55;19.95;;;;;;;3.80;100.00;103865.88;5014492;28;20045;-68
2022/01/18 07:38:05;;;;;;;46.63;19.00;;;;;;;3.81;100.00;103865.00;5016663;28;20100;-68
2022/01/18 07:40:32;;;;;;;46.33;19.75;;;;;;;3.80;100.00;103869.38;5015657;28;20053;-68
2022/01/18 07:43:00;;;;;;;47.15;19.63;;;;;;;3.82;100.00;103862.38;5012909;28;20034;-68
2022/01/18 07:45:27;;;;;;;48.30;19.80;;;;;;;3.82;100.00;103862.38;5024538;28;20043;-68
2022/01/18 07:47:52;;;;;;;48.00;20.08;;;;;;;3.83;100.00;103865.88;5023124;28;20018;-68
2022/01/18 07:50:17;;;;;;;41.45;19.88;;;;;;;3.84;100.00;103868.50;5015710;28;20033;-68
2022/01/18 07:52:43;;;;;;;45.40;19.95;;;;;;;3.84;100.00;103876.38;5010821;28;20504;-68
2022/01/18 07:55:09;;;;;;;55.05;20.27;;;;;;;3.85;100.00;103870.25;5012634;28;20033;-68
2022/01/18 07:57:34;;;;;;;57.17;21.75;;;;;;;3.85;100.00;103877.28;5013035;28;20034;-68
2022/01/18 08:00:00;;;;;;;59.70;22.08;;;;;;;3.85;100.00;103870.25;5012783;28;20017;-68
2022/01/18 08:02:26;;;;;;;54.83;20.92;;;;;;;3.85;100.00;103866.78;5011521;28;20099;-68
2022/01/18 08:04:52;;;;;;;60.72;21.17;;;;;;;3.87;100.00;103870.25;5013363;28;20391;-68
2022/01/18 08:07:17;;;;;;;53.33;19.88;;;;;;;3.86;100.00;103869.41;5011862;28;20113;-68
2022/01/18 08:09:43;;;;;;;62.28;21.13;;;;;;;3.88;100.00;103866.75;5011197;28;20048;-68
2022/01/18 08:12:09;;;;;;;60.85;21.10;;;;;;;3.87;100.00;103878.16;5011803;28;20116;-67
2022/01/18 08:14:35;;;;;;;51.65;20.05;;;;;;;3.88;100.00;103875.53;5021772;28;20044;-68
2022/01/18 08:17:06;;;;;;;55.17;21.23;;;;;;;3.91;100.00;103873.75;5012000;28;20034;-69
2022/01/18 08:19:34;;;;;;;58.10;21.58;;;;;;;3.93;100.00;103879.91;5020995;28;20022;-68
2022/01/18 08:21:59;;;;;;;69.68;23.10;;;;;;;3.93;100.00;103869.38;5030490;28;20402;-68
2022/01/18 08:24:25;;;;;;;61.55;22.48;;;;;;;3.94;100.00;103877.28;5016838;28;20034;-68
2022/01/18 08:26:51;;;;;;;63.45;22.98;;;;;;;3.96;100.00;103866.75;5016868;28;20129;-67
2022/01/18 08:29:16;;;;;;;66.95;22.38;;;;;;;3.97;100.00;103871.16;5016717;28;20113;-68
2022/01/18 08:31:42;;;;;;;71.47;23.17;;;;;;;3.99;100.00;103875.50;5016669;28;20495;-68
2022/01/18 08:34:08;;;;;;;68.78;23.23;;;;;;;4.00;100.00;103871.16;5014480;28;20033;-68
2022/01/18 08:36:34;;;;;;;69.78;24.02;;;;;;;4.01;100.00;103865.91;5010249;28;20089;-68
2022/01/18 08:39:00;;;;;;;81.93;25.48;;;;;;;4.03;100.00;103864.13;5010458;28;20427;-68
2022/01/18 08:41:26;;;;;;;76.45;23.88;;;;;;;4.05;100.00;103861.50;5012438;28;20084;-67
2022/01/18 08:43:52;;;;;;;74.88;26.20;;;;;;;4.06;100.00;103864.13;5018531;28;20108;-67
2022/01/18 08:46:17;;;;;;;76.65;24.70;;;;;;;4.09;100.00;103871.13;5028918;28;20558;-68
2022/01/18 08:48:43;;;;;;;69.85;23.40;;;;;;;4.10;100.00;103872.91;5014077;28;20033;-68
2022/01/18 08:51:09;;;;;;;67.60;22.70;;;;;;;4.11;100.00;103869.38;5030983;28;20064;-68
2022/01/18 08:53:35;;;;;;;70.57;22.15;;;;;;;4.12;100.00;103873.75;5029069;28;20038;-67
2022/01/18 08:56:01;;;;;;;71.47;22.25;;;;;;;4.14;100.00;103872.00;5031888;28;20108;-67
2022/01/18 08:58:26;;;;;;;73.45;23.15;;;;;;;4.16;100.00;103872.88;5030077;28;20383;-68
2022/01/18 09:00:52;;;;;;;68.80;21.75;;;;;;;4.19;100.00;103874.63;5019275;28;20034;-68
2022/01/18 09:03:17;;;;;;;76.32;22.80;;;;;;;4.21;100.00;103873.78;5031898;28;20025;-68
2022/01/18 09:05:44;;;;;;;68.15;22.95;;;;;;;4.22;100.00;103872.88;5018780;28;20470;-68
2022/01/18 09:08:12;;;;;;;61.83;21.73;;;;;;;4.24;100.00;103865.84;5030381;28;20033;-68
2022/01/18 09:10:37;;;;;;;64.97;21.95;;;;;;;4.28;100.00;103873.75;5029571;28;20446;-68
2022/01/18 09:13:03;;;;;;;68.93;23.13;;;;;;;4.31;100.00;103874.59;5022933;28;20036;-67
2022/01/18 09:15:29;;;;;;;58.35;21.00;;;;;;;4.34;100.00;103874.59;5033163;28;20475;-67
2022/01/18 09:17:54;;;;;;;70.57;22.95;;;;;;;4.36;100.00;103879.88;5033359;28;20168;-67
2022/01/18 09:20:20;;;;;;;55.13;19.95;;;;;;;4.39;100.00;103880.75;5029868;28;20538;-67
2022/01/18 09:22:48;;;;;;;62.83;20.95;;;;;;;4.41;100.00;103881.63;5031974;28;20041;-67
2022/01/18 09:25:33;;;;;;;50.90;22.08;;;;;;;4.47;100.00;103879.88;5034067;28;20538;-67
2022/01/18 09:27:59;;;;;;;52.42;21.35;;;;;;;4.48;100.00;103884.22;5035134;28;20031;-67
2022/01/18 09:30:27;;;;;;;61.65;22.30;;;;;;;4.48;100.00;103892.13;5035122;28;20037;-67
2022/01/18 09:32:53;;;;;;;59.20;22.73;;;;;;;4.51;100.00;103894.75;5034929;28;20033;-67
2022/01/18 09:35:20;;;;;;;65.57;23.10;;;;;;;4.53;100.00;103893.00;5031647;28;20033;-67
2022/01/18 09:37:46;;;;;;;64.70;24.63;;;;;;;4.57;100.00;103892.13;5035001;28;20033;-67
2022/01/18 09:40:15;;;;;;;58.17;22.42;;;;;;;4.61;100.00;103892.13;5024428;28;20112;-68
2022/01/18 09:42:43;;;;;;;54.42;22.65;;;;;;;4.64;100.00;103889.44;5031193;28;20037;-68
2022/01/18 09:45:19;;;;;;;56.85;22.80;;;;;;;4.68;100.00;103899.97;5032022;28;20077;-67
2022/01/18 09:47:47;;;;;;;55.45;22.30;;;;;;;4.71;100.00;103890.31;5030711;28;20036;-67
2022/01/18 09:50:16;;;;;;;65.25;22.75;;;;;;;4.74;100.00;103898.22;5032260;28;20029;-67
2022/01/18 09:52:42;;;;;;;59.75;23.27;;;;;;;4.78;100.00;103899.97;5027268;28;20060;-68
2022/01/18 09:55:09;;;;;;;56.13;23.08;;;;;;;4.84;100.00;103898.19;5029018;28;20087;-68
2022/01/18 09:57:36;;;;;;;59.83;23.98;;;;;;;4.86;100.00;103902.56;5032945;28;20095;-67
2022/01/18 10:00:04;;;;;;;56.17;23.05;;;;;;;4.92;100.00;103901.69;5033042;28;20116;-67
2022/01/18 10:02:29;;;;;;;51.40;23.00;;;;;;;4.95;100.00;103902.53;5022670;28;20037;-67
2022/01/18 10:04:57;;;;;;;51.17;23.02;;;;;;;5.03;100.00;103904.25;5033099;28;20025;-67
2022/01/18 10:07:33;;;;;;;43.30;21.13;;;;;;;5.06;100.00;103896.34;5032599;28;20030;-67
2022/01/18 10:10:01;;;;;;;47.75;20.85;;;;;;;5.10;100.00;103896.34;5033039;28;20034;-67
2022/01/18 10:12:26;;;;;;;47.15;20.52;;;;;;;5.14;100.00;103898.06;5019690;28;20491;-67
2022/01/18 10:14:54;;;;;;;41.67;20.60;;;;;;;5.17;100.00;103897.19;5032679;28;20083;-67
2022/01/18 10:17:33;;;;;;;46.53;22.33;;;;;;;5.22;100.00;103899.78;5031593;28;20037;-67
2022/01/18 10:20:13;;;;;;;39.60;20.70;;;;;;;5.28;100.00;103908.56;5020118;28;20504;-67
2022/01/18 10:22:43;;;;;;;40.75;23.08;;;;;;;5.31;100.00;103898.00;5030943;28;20033;-67
2022/01/18 10:25:13;;;;;;;45.38;24.27;;;;;;;5.37;100.00;103897.94;5012847;28;20041;-67
2022/01/18 10:27:38;;;;;;;47.83;23.65;;;;;;;5.41;100.00;103890.03;5025674;28;20179;-67
2022/01/18 10:30:10;;;;;;;50.50;24.73;;;;;;;5.43;100.00;103889.16;5032225;28;20116;-68
2022/01/18 10:32:40;;;;;;;52.80;25.58;;;;;;;5.48;100.00;103881.19;5028035;28;20391;-68
2022/01/18 10:35:08;;;;;;;56.00;27.27;;;;;;;5.51;100.00;103887.34;5027562;28;20102;-68
2022/01/18 10:37:37;;;;;;;68.03;28.83;;;;;;;5.62;100.00;103881.97;5029981;28;20071;-68
2022/01/18 10:40:13;;;;;;;62.30;31.00;;;;;;;5.69;100.00;103888.09;5025992;28;20155;-67
2022/01/18 10:42:40;;;;;;;59.60;29.33;;;;;;;5.72;100.00;103883.66;5030232;28;20064;-68
2022/01/18 10:45:24;;;;;;;59.30;29.23;;;;;;;5.81;100.00;103877.47;5030469;28;20403;-67
2022/01/18 10:48:04;;;;;;;65.50;30.10;;;;;;;5.98;100.00;103880.00;5031929;28;20487;-67
2022/01/18 10:50:38;;;;;;;63.85;29.63;;;;;;;6.15;100.00;103871.91;5028436;28;20044;-67
2022/01/18 10:53:29;;;;;;;52.15;24.42;;;;;;;6.29;100.00;103864.75;5012588;28;20037;-67
2022/01/18 10:56:17;;;;;;;61.85;25.60;;;;;;;6.40;100.00;103858.50;5012907;28;20128;-67
2022/01/18 10:58:48;;;;;;;55.53;24.17;;;;;;;6.52;100.00;103863.63;5011973;28;20029;-68
2022/01/18 11:01:20;;;;;;;54.75;24.23;;;;;;;6.66;100.00;103859.06;5016428;28;20041;-68
2022/01/18 11:04:08;;;;;;;48.63;22.80;;;;;;;6.77;100.00;103858.06;5031557;28;20030;-68
2022/01/18 11:06:35;;;;;;;46.83;21.92;;;;;;;6.92;100.00;103854.34;5032930;28;20037;-68
2022/01/18 11:09:15;;;;;;;53.40;23.88;;;;;;;7.04;100.00;103854.19;5031504;28;20045;-68
2022/01/18 11:11:45;;;;;;;42.70;20.90;;;;;;;7.12;100.00;103847.03;5032876;28;20403;-67
2022/01/18 11:14:13;;;;;;;51.38;23.35;;;;;;;7.21;100.00;103846.91;5032599;28;20029;-67
2022/01/18 11:16:43;;;;;;;50.92;24.00;;;;;;;7.29;98.98;103846.78;5030254;28;20035;-67
2022/01/18 11:19:18;;;;;;;54.08;23.08;;;;;;;7.43;99.72;103856.28;5023681;28;20087;-68
2022/01/18 11:21:45;;;;;;;50.05;22.33;;;;;;;7.54;100.00;103851.72;5030786;28;20539;-68
2022/01/18 11:24:11;;;;;;;50.47;21.50;;;;;;;7.64;99.68;103855.09;5032397;28;20107;-68
2022/01/18 11:26:38;;;;;;;46.05;20.20;;;;;;;7.75;97.94;103842.56;5028345;28;20053;-68
2022/01/18 11:29:05;;;;;;;43.75;19.40;;;;;;;7.84;96.54;103841.53;5020802;28;20061;-68
2022/01/18 11:31:30;;;;;;;35.90;18.52;;;;;;;7.97;96.29;103840.41;5014571;28;20104;-68
2022/01/18 11:33:59;;;;;;;39.00;19.80;;;;;;;8.04;95.84;103838.53;5029102;28;20033;-68
2022/01/18 11:36:32;;;;;;;40.53;18.17;;;;;;;8.10;94.09;103841.94;5029552;28;20041;-68
2022/01/18 11:39:01;;;;;;;40.17;18.27;;;;;;;8.14;93.65;103833.06;5016379;28;20072;-69
2022/01/18 11:41:31;;;;;;;35.10;17.42;;;;;;;8.13;91.79;103828.66;5028520;28;20152;-69
2022/01/18 11:43:59;;;;;;;36.85;16.45;;;;;;;8.23;91.74;103829.38;5019498;28;20446;-68
2022/01/18 11:46:32;;;;;;;39.58;15.10;;;;;;;8.23;92.23;103829.38;5027671;28;20038;-70
2022/01/18 11:49:08;;;;;;;35.15;14.95;;;;;;;8.23;91.00;103826.72;5030329;28;20112;-68
2022/01/18 11:51:56;;;;;;;40.15;14.77;;;;;;;8.25;91.03;103822.25;5029576;28;20111;-69
2022/01/18 11:54:37;;;;;;;37.67;14.57;;;;;;;8.25;91.32;103824.91;5020549;28;20379;-68
2022/01/18 11:57:21;;;;;;;31.15;14.43;;;;;;;8.26;91.08;103828.41;5041860;28;20579;-68
2022/01/18 11:59:48;;;;;;;33.67;14.40;;;;;;;8.21;89.39;103832.94;5029853;28;20467;-69
2022/01/18 12:02:26;;;;;;;31.38;13.90;;;;;;;8.21;89.34;103828.53;5018892;28;20479;-69
2022/01/18 12:04:54;;;;;;;30.33;14.13;;;;;;;8.17;87.60;103826.81;5017386;28;20021;-69
2022/01/18 12:07:36;;;;;;;34.88;15.77;;;;;;;8.19;88.38;103819.72;5029791;28;20033;-68
2022/01/18 12:10:01;;;;;;;32.20;15.32;;;;;;;8.18;88.13;103818.00;5023264;28;20032;-69
2022/01/18 12:12:39;;;;;;;30.47;13.67;;;;;;;8.20;87.80;103813.53;5024549;28;20041;-69
2022/01/18 12:15:26;;;;;;;33.67;14.50;;;;;;;8.21;87.93;103806.47;5029934;28;20308;-69